createdAt,value
2018-09-22T00:00:28.272Z,13.25
2018-09-22T00:02:57.270Z,13.26
2018-09-22T00:05:26.193Z,13.21
2018-09-22T00:07:55.162Z,13.19
2018-09-22T00:10:24.307Z,13.01
2018-09-22T00:12:53.284Z,12.96
2018-09-22T00:15:22.223Z,12.95
2018-09-22T00:17:51.237Z,12.95
2018-09-22T00:20:20.308Z,12.92
2018-09-22T00:22:49.245Z,12.90
2018-09-22T00:25:18.181Z,12.82
2018-09-22T00:27:47.134Z,12.82
2018-09-22T00:30:16.168Z,12.84
2018-09-22T00:32:45.117Z,12.82
2018-09-22T00:35:14.061Z,12.73
2018-09-22T00:37:42.986Z,12.65
2018-09-22T00:40:12.025Z,12.69
2018-09-22T00:42:41.212Z,12.64
2018-09-22T00:45:10.185Z,12.71
2018-09-22T00:47:39.129Z,12.61
2018-09-22T00:50:08.065Z,12.58
2018-09-22T00:52:38.915Z,12.52
2018-09-22T00:55:07.848Z,12.45
2018-09-22T00:57:36.807Z,12.45
2018-09-22T01:00:05.764Z,12.34
2018-09-22T01:02:38.075Z,12.34
2018-09-22T01:05:07.198Z,12.34
2018-09-22T01:07:36.139Z,12.25
2018-09-22T01:10:05.201Z,12.24
2018-09-22T01:12:34.668Z,12.25
2018-09-22T01:15:03.602Z,12.22
2018-09-22T01:17:32.546Z,12.33
2018-09-22T01:20:01.482Z,12.41
2018-09-22T01:22:30.424Z,12.33
2018-09-22T01:24:59.381Z,12.34
2018-09-22T01:27:28.303Z,12.24
2018-09-22T01:29:57.258Z,12.29
2018-09-22T01:32:26.316Z,12.28
2018-09-22T01:34:55.366Z,12.21
2018-09-22T01:37:24.363Z,12.20
2018-09-22T01:39:53.307Z,12.25
2018-09-22T01:42:22.335Z,12.21
2018-09-22T01:44:51.373Z,12.20
2018-09-22T01:47:22.855Z,12.20
2018-09-22T01:49:51.775Z,12.19
2018-09-22T01:52:20.718Z,12.18
2018-09-22T01:54:49.686Z,12.19
2018-09-22T01:57:18.611Z,12.22
2018-09-22T01:59:47.541Z,12.13
2018-09-22T02:02:16.482Z,12.14
2018-09-22T02:04:45.426Z,12.07
2018-09-22T02:07:14.431Z,12.03
2018-09-22T02:09:43.369Z,11.97
2018-09-22T02:12:12.297Z,11.91
2018-09-22T02:14:41.204Z,11.89
2018-09-22T02:17:10.163Z,11.94
2018-09-22T02:19:39.099Z,11.94
2018-09-22T02:22:08.100Z,12.11
2018-09-22T02:24:37.053Z,12.14
2018-09-22T02:27:06.135Z,12.18
2018-09-22T02:29:35.105Z,12.06
2018-09-22T02:32:04.243Z,12.11
2018-09-22T02:34:33.281Z,12.06
2018-09-22T02:37:02.286Z,12.12
2018-09-22T02:39:31.239Z,12.15
2018-09-22T02:42:00.195Z,12.14
2018-09-22T02:44:29.134Z,12.10
2018-09-22T02:46:58.179Z,12.09
2018-09-22T02:49:28.213Z,12.13
2018-09-22T02:51:57.985Z,12.18
2018-09-22T02:54:27.026Z,12.18
2018-09-22T02:56:55.987Z,12.09
2018-09-22T02:59:24.983Z,12.16
2018-09-22T03:01:53.931Z,12.22
2018-09-22T03:04:22.865Z,12.25
2018-09-22T03:06:51.803Z,12.31
2018-09-22T03:09:20.719Z,12.28
2018-09-22T03:11:49.660Z,12.29
2018-09-22T03:14:18.631Z,12.21
2018-09-22T03:16:47.598Z,12.23
2018-09-22T03:19:16.618Z,12.25
2018-09-22T03:21:45.555Z,12.21
2018-09-22T03:24:14.495Z,12.24
2018-09-22T03:26:43.424Z,12.22
2018-09-22T03:29:12.427Z,12.24
2018-09-22T03:31:41.338Z,12.26
2018-09-22T03:34:10.273Z,12.32
2018-09-22T03:36:39.200Z,12.35
2018-09-22T03:39:09.494Z,12.27
2018-09-22T03:41:38.530Z,12.29
2018-09-22T03:44:07.858Z,12.28
2018-09-22T03:46:36.769Z,12.24
2018-09-22T03:49:06.053Z,12.20
2018-09-22T03:51:35.089Z,12.15
2018-09-22T03:54:04.042Z,12.18
2018-09-22T03:56:33.368Z,12.10
2018-09-22T03:59:02.333Z,12.06
2018-09-22T04:01:31.793Z,12.00
2018-09-22T04:04:00.725Z,11.97
2018-09-22T04:06:29.771Z,12.00
2018-09-22T04:08:58.735Z,12.03
2018-09-22T04:11:27.671Z,11.98
2018-09-22T04:13:56.609Z,11.99
2018-09-22T04:16:25.776Z,12.01
2018-09-22T04:18:54.731Z,11.95
2018-09-22T04:21:25.669Z,11.93
2018-09-22T04:23:54.580Z,11.92
2018-09-22T04:26:23.500Z,11.88
2018-09-22T04:28:52.456Z,11.85
2018-09-22T04:31:21.376Z,11.85
2018-09-22T04:33:50.439Z,11.86
2018-09-22T04:36:19.360Z,11.79
2018-09-22T04:38:48.410Z,11.78
2018-09-22T04:41:17.350Z,11.70
2018-09-22T04:43:46.313Z,11.64
2018-09-22T04:46:15.293Z,11.64
2018-09-22T04:48:44.285Z,11.78
2018-09-22T04:51:13.316Z,11.85
2018-09-22T04:53:42.337Z,11.84
2018-09-22T04:56:11.302Z,11.79
2018-09-22T04:58:40.245Z,11.76
2018-09-22T05:01:09.191Z,11.77
2018-09-22T05:03:38.766Z,11.80
2018-09-22T05:06:07.704Z,11.82
2018-09-22T05:08:36.746Z,11.77
2018-09-22T05:11:05.816Z,11.84
2018-09-22T05:13:34.889Z,11.91
2018-09-22T05:16:03.919Z,11.93
2018-09-22T05:18:32.889Z,12.03
2018-09-22T05:21:02.081Z,12.00
2018-09-22T05:23:31.131Z,11.98
2018-09-22T05:26:00.483Z,12.02
2018-09-22T05:28:29.776Z,12.04
2018-09-22T05:30:58.845Z,12.00
2018-09-22T05:33:27.887Z,12.05
2018-09-22T05:35:56.832Z,12.05
2018-09-22T05:38:25.853Z,12.06
2018-09-22T05:40:55.007Z,12.09
2018-09-22T05:43:24.001Z,12.16
2018-09-22T05:45:53.036Z,12.20
2018-09-22T05:48:22.001Z,12.26
2018-09-22T05:50:50.962Z,12.67
2018-09-22T05:53:19.910Z,13.05
2018-09-22T05:55:48.925Z,13.13
2018-09-22T05:58:17.885Z,13.09
2018-09-22T06:00:46.857Z,12.85
2018-09-22T06:03:15.878Z,13.09
2018-09-22T06:05:44.970Z,13.22
2018-09-22T06:08:13.919Z,14.03
2018-09-22T06:10:42.874Z,14.86
2018-09-22T06:13:11.942Z,15.73
2018-09-22T06:15:40.936Z,15.64
2018-09-22T06:18:10.408Z,15.11
2018-09-22T06:20:39.464Z,15.46
2018-09-22T06:23:08.430Z,15.62
2018-09-22T06:25:37.464Z,15.77
2018-09-22T06:28:06.433Z,15.86
2018-09-22T06:30:35.433Z,16.47
2018-09-22T06:33:04.545Z,17.02
2018-09-22T06:35:33.537Z,16.85
2018-09-22T06:38:02.532Z,17.28
2018-09-22T06:40:31.735Z,17.47
2018-09-22T06:43:00.677Z,17.44
2018-09-22T06:45:29.689Z,17.58
2018-09-22T06:47:58.756Z,17.46
2018-09-22T06:50:27.796Z,17.70
2018-09-22T06:52:56.791Z,18.11
2018-09-22T06:55:25.754Z,17.90
2018-09-22T06:57:54.734Z,18.30
2018-09-22T07:00:23.704Z,18.72
2018-09-22T07:02:52.691Z,18.81
2018-09-22T07:05:21.732Z,18.00
2018-09-22T07:07:50.941Z,18.53
2018-09-22T07:10:20.263Z,18.66
2018-09-22T07:12:49.305Z,18.72
2018-09-22T07:15:18.265Z,17.99
2018-09-22T07:17:47.262Z,18.94
2018-09-22T07:20:16.297Z,19.17
2018-09-22T07:22:50.607Z,19.50
2018-09-22T07:25:19.630Z,19.92
2018-09-22T07:27:48.589Z,19.92
2018-09-22T07:30:17.553Z,19.74
2018-09-22T07:32:46.488Z,19.94
2018-09-22T07:35:15.454Z,19.57
2018-09-22T07:37:44.398Z,19.92
2018-09-22T07:40:13.389Z,19.30
2018-09-22T07:42:42.342Z,19.23
2018-09-22T07:45:11.599Z,19.19
2018-09-22T07:47:40.571Z,19.10
2018-09-22T07:50:09.509Z,19.34
2018-09-22T07:52:38.468Z,19.53
2018-09-22T07:55:07.430Z,18.51
2018-09-22T07:57:36.396Z,19.47
2018-09-22T08:00:05.585Z,19.11
2018-09-22T08:02:34.559Z,19.48
2018-09-22T08:05:03.531Z,20.05
2018-09-22T08:07:32.475Z,21.16
2018-09-22T08:10:01.426Z,20.53
2018-09-22T08:12:30.449Z,19.01
2018-09-22T08:14:59.414Z,18.69
2018-09-22T08:17:28.395Z,19.40
2018-09-22T08:19:57.376Z,20.02
2018-09-22T08:22:26.636Z,19.78
2018-09-22T08:24:55.597Z,18.50
2018-09-22T08:27:24.551Z,17.78
2018-09-22T08:29:53.490Z,17.93
2018-09-22T08:32:22.453Z,18.66
2018-09-22T08:34:51.473Z,18.46
2018-09-22T08:37:20.501Z,18.04
2018-09-22T08:39:49.430Z,18.80
2018-09-22T08:42:18.448Z,19.31
2018-09-22T08:44:47.443Z,19.62
2018-09-22T08:47:16.401Z,18.96
2018-09-22T08:49:45.547Z,18.91
2018-09-22T08:52:14.410Z,18.57
2018-09-22T08:54:43.361Z,18.92
2018-09-22T08:57:12.415Z,19.31
2018-09-22T08:59:41.447Z,19.88
2018-09-22T09:02:10.443Z,20.58
2018-09-22T09:04:39.466Z,21.16
2018-09-22T09:07:08.437Z,21.26
2018-09-22T09:09:37.373Z,21.39
2018-09-22T09:12:06.590Z,22.37
2018-09-22T09:14:35.567Z,22.34
2018-09-22T09:17:04.740Z,22.48
2018-09-22T09:19:33.700Z,22.27
2018-09-22T09:22:02.681Z,21.94
2018-09-22T09:24:31.652Z,21.53
2018-09-22T09:27:00.782Z,21.40
2018-09-22T09:29:29.787Z,21.13
2018-09-22T09:31:58.752Z,21.60
2018-09-22T09:34:27.787Z,21.83
2018-09-22T09:36:56.735Z,21.49
2018-09-22T09:39:25.694Z,22.27
2018-09-22T09:41:54.673Z,22.85
2018-09-22T09:44:23.632Z,22.50
2018-09-22T09:46:52.609Z,21.05
2018-09-22T09:49:21.622Z,20.06
2018-09-22T09:51:50.616Z,19.73
2018-09-22T09:54:19.560Z,19.74
2018-09-22T09:56:48.582Z,20.64
2018-09-22T09:59:17.614Z,20.13
2018-09-22T10:01:46.547Z,20.29
2018-09-22T10:04:15.532Z,20.46
2018-09-22T10:06:44.490Z,19.62
2018-09-22T10:09:14.209Z,19.45
2018-09-22T10:11:43.190Z,19.17
2018-09-22T10:14:12.167Z,19.98
2018-09-22T10:16:41.106Z,19.63
2018-09-22T10:19:10.057Z,19.66
2018-09-22T10:21:39.040Z,19.46
2018-09-22T10:24:08.019Z,20.35
2018-09-22T10:26:36.989Z,20.12
2018-09-22T10:29:05.947Z,20.07
2018-09-22T10:31:35.427Z,20.38
2018-09-22T10:34:04.365Z,21.17
2018-09-22T10:36:33.344Z,21.52
2018-09-22T10:39:02.324Z,20.49
2018-09-22T10:41:31.275Z,20.24
2018-09-22T10:44:00.322Z,19.87
2018-09-22T10:46:29.418Z,19.86
2018-09-22T10:48:58.589Z,19.57
2018-09-22T10:51:27.555Z,19.42
2018-09-22T10:53:56.674Z,20.15
2018-09-22T10:56:25.708Z,19.76
2018-09-22T10:58:54.671Z,19.07
2018-09-22T11:01:23.680Z,19.38
2018-09-22T11:03:52.812Z,19.31
2018-09-22T11:06:21.796Z,19.45
2018-09-22T11:08:50.728Z,20.19
2018-09-22T11:11:19.718Z,20.40
2018-09-22T11:13:48.764Z,20.56
2018-09-22T11:16:17.759Z,19.83
2018-09-22T11:18:46.867Z,19.76
2018-09-22T11:21:15.843Z,20.02
2018-09-22T11:23:44.825Z,19.93
2018-09-22T11:26:13.804Z,19.27
2018-09-22T11:28:42.770Z,18.73
2018-09-22T11:31:11.834Z,18.53
2018-09-22T11:33:40.792Z,18.65
2018-09-22T11:36:09.835Z,18.47
2018-09-22T11:38:38.789Z,18.86
2018-09-22T11:41:08.148Z,18.82
2018-09-22T11:43:37.155Z,19.20
2018-09-22T11:46:06.098Z,18.95
2018-09-22T11:48:35.089Z,18.96
2018-09-22T11:51:04.157Z,19.28
2018-09-22T11:53:34.316Z,19.60
2018-09-22T11:56:03.264Z,19.56
2018-09-22T11:58:32.301Z,19.68
2018-09-22T12:01:01.821Z,19.71
2018-09-22T12:03:30.908Z,19.72
2018-09-22T12:05:59.969Z,19.75
2018-09-22T12:08:32.636Z,19.49
2018-09-22T12:11:01.727Z,19.01
2018-09-22T12:13:30.708Z,18.96
2018-09-22T12:15:59.717Z,18.47
2018-09-22T12:18:28.968Z,18.81
2018-09-22T12:20:58.105Z,19.21
2018-09-22T12:23:27.136Z,19.13
2018-09-22T12:25:56.201Z,19.20
2018-09-22T12:28:25.290Z,19.21
2018-09-22T12:30:59.610Z,19.38
2018-09-22T12:33:29.978Z,19.92
2018-09-22T12:35:58.981Z,20.06
2018-09-22T12:38:27.987Z,19.81
2018-09-22T12:40:59.638Z,19.78
2018-09-22T12:43:28.697Z,19.93
2018-09-22T12:45:57.737Z,19.60
2018-09-22T12:48:26.767Z,19.85
2018-09-22T12:50:56.187Z,19.98
2018-09-22T12:53:26.492Z,20.59
2018-09-22T12:55:58.429Z,20.80
2018-09-22T12:58:27.775Z,20.62
2018-09-22T13:00:56.759Z,20.78
2018-09-22T13:03:25.744Z,21.41
2018-09-22T13:05:54.691Z,20.87
2018-09-22T13:08:23.770Z,20.40
2018-09-22T13:10:52.717Z,19.93
2018-09-22T13:13:21.710Z,19.81
2018-09-22T13:15:50.676Z,19.85
2018-09-22T13:18:19.672Z,19.96
2018-09-22T13:20:48.668Z,19.85
2018-09-22T13:23:17.598Z,19.84
2018-09-22T13:25:46.555Z,19.36
2018-09-22T13:28:15.516Z,18.95
2018-09-22T13:30:44.458Z,18.73
2018-09-22T13:33:13.496Z,18.63
2018-09-22T13:35:42.455Z,18.52
2018-09-22T13:38:11.433Z,18.61
2018-09-22T13:40:40.373Z,18.67
2018-09-22T13:43:09.538Z,18.48
2018-09-22T13:45:38.462Z,18.34
2018-09-22T13:48:07.422Z,18.39
2018-09-22T13:50:36.352Z,18.16
2018-09-22T13:53:05.484Z,18.02
2018-09-22T13:55:34.482Z,18.02
2018-09-22T13:58:03.424Z,18.17
2018-09-22T14:00:32.377Z,18.09
2018-09-22T14:03:01.455Z,18.05
2018-09-22T14:05:30.396Z,18.14
2018-09-22T14:07:59.618Z,18.22
2018-09-22T14:10:28.580Z,18.07
2018-09-22T14:12:57.601Z,18.20
2018-09-22T14:15:26.508Z,18.38
2018-09-22T14:17:55.450Z,18.37
2018-09-22T14:20:24.403Z,18.29
2018-09-22T14:22:53.358Z,18.27
2018-09-22T14:25:22.341Z,18.36
2018-09-22T14:27:51.289Z,18.33
2018-09-22T14:30:20.317Z,18.15
2018-09-22T14:32:49.355Z,18.00
2018-09-22T14:35:18.284Z,18.01
2018-09-22T14:37:47.391Z,18.03
2018-09-22T14:40:16.470Z,17.82
2018-09-22T14:42:45.527Z,17.62
2018-09-22T14:45:14.473Z,17.71
2018-09-22T14:47:43.445Z,17.65
2018-09-22T14:50:12.355Z,17.62
2018-09-22T14:52:41.297Z,17.58
2018-09-22T14:55:10.267Z,17.57
2018-09-22T14:57:39.187Z,17.69
2018-09-22T15:00:08.132Z,17.58
2018-09-22T15:02:37.094Z,17.51
2018-09-22T15:05:06.216Z,17.45
2018-09-22T15:07:35.158Z,17.60
2018-09-22T15:10:04.173Z,17.58
2018-09-22T15:12:33.183Z,17.47
2018-09-22T15:15:02.201Z,17.46
2018-09-22T15:17:31.264Z,17.50
2018-09-22T15:20:00.277Z,17.50
2018-09-22T15:22:29.308Z,17.34
2018-09-22T15:24:58.258Z,17.44
2018-09-22T15:27:27.224Z,17.35
2018-09-22T15:29:56.175Z,17.41
2018-09-22T15:32:25.125Z,17.37
2018-09-22T15:34:54.068Z,17.40
2018-09-22T15:37:23.168Z,17.33
2018-09-22T15:39:52.133Z,17.40
2018-09-22T15:42:21.064Z,17.38
2018-09-22T15:44:50.045Z,17.42
2018-09-22T15:47:18.984Z,17.34
2018-09-22T15:49:47.929Z,17.32
2018-09-22T15:52:16.926Z,17.26
2018-09-22T15:54:45.802Z,17.20
2018-09-22T15:57:14.739Z,17.11
2018-09-22T15:59:43.814Z,17.03
2018-09-22T16:02:12.801Z,17.07
2018-09-22T16:04:41.785Z,17.05
2018-09-22T16:07:10.708Z,17.08
2018-09-22T16:09:39.911Z,17.10
2018-09-22T16:12:08.928Z,17.01
2018-09-22T16:14:38.164Z,16.90
2018-09-22T16:17:07.121Z,16.90
2018-09-22T16:19:36.139Z,16.82
2018-09-22T16:22:05.118Z,16.81
2018-09-22T16:24:34.164Z,16.71
2018-09-22T16:27:03.108Z,16.66
2018-09-22T16:29:33.753Z,16.62
2018-09-22T16:32:02.737Z,16.56
2018-09-22T16:34:31.719Z,16.51
2018-09-22T16:37:00.957Z,16.47
2018-09-22T16:39:29.927Z,16.41
2018-09-22T16:41:58.942Z,16.41
2018-09-22T16:44:27.903Z,16.40
2018-09-22T16:46:56.914Z,16.38
2018-09-22T16:49:26.304Z,16.29
2018-09-22T16:51:55.189Z,16.27
2018-09-22T16:54:24.377Z,16.22
2018-09-22T16:56:53.396Z,16.15
2018-09-22T16:59:23.813Z,16.09
2018-09-22T17:01:53.367Z,16.06
2018-09-22T17:04:22.607Z,16.06
2018-09-22T17:06:51.961Z,16.00
2018-09-22T17:09:20.990Z,15.90
2018-09-22T17:11:50.018Z,15.88
2018-09-22T17:14:18.957Z,15.80
2018-09-22T17:16:47.944Z,15.77
2018-09-22T17:19:16.944Z,15.67
2018-09-22T17:21:45.917Z,15.63
2018-09-22T17:24:15.463Z,15.60
2018-09-22T17:26:45.645Z,15.60
2018-09-22T17:29:14.688Z,15.51
2018-09-22T17:31:43.649Z,15.52
2018-09-22T17:34:12.647Z,15.42
2018-09-22T17:36:41.652Z,15.35
2018-09-22T17:39:11.106Z,15.37
2018-09-22T17:41:40.157Z,15.26
2018-09-22T17:44:09.239Z,15.22
2018-09-22T17:46:38.245Z,15.18
2018-09-22T17:49:07.208Z,15.08
2018-09-22T17:51:36.312Z,15.01
2018-09-22T17:54:05.342Z,14.93
2018-09-22T17:56:34.294Z,14.79
2018-09-22T17:59:03.258Z,14.76
2018-09-22T18:01:32.196Z,14.81
2018-09-22T18:04:01.251Z,14.77
2018-09-22T18:06:30.271Z,14.76
2018-09-22T18:08:59.259Z,14.77
2018-09-22T18:11:28.372Z,14.67
2018-09-22T18:13:57.355Z,14.73
2018-09-22T18:16:26.335Z,14.66
2018-09-22T18:18:55.477Z,14.55
2018-09-22T18:21:24.449Z,14.47
2018-09-22T18:23:53.468Z,14.41
2018-09-22T18:26:22.429Z,14.32
2018-09-22T18:28:51.405Z,14.32
2018-09-22T18:31:20.376Z,14.35
2018-09-22T18:33:49.399Z,14.38
2018-09-22T18:36:18.330Z,14.39
2018-09-22T18:38:47.547Z,14.48
2018-09-22T18:41:16.656Z,14.55
2018-09-22T18:43:45.622Z,14.84
2018-09-22T18:46:14.584Z,14.72
2018-09-22T18:48:43.686Z,14.82
2018-09-22T18:51:12.726Z,14.85
2018-09-22T18:53:41.654Z,14.85
2018-09-22T18:56:10.697Z,14.66
2018-09-22T18:58:39.828Z,14.60
2018-09-22T19:01:08.766Z,14.78
2018-09-22T19:03:37.813Z,14.64
2018-09-22T19:06:07.146Z,14.50
2018-09-22T19:08:36.093Z,14.54
2018-09-22T19:11:05.013Z,14.59
2018-09-22T19:13:42.791Z,14.50
2018-09-22T19:16:17.083Z,14.46
2018-09-22T19:18:49.577Z,14.36
2018-09-22T19:21:27.988Z,14.24
2018-09-22T19:24:00.962Z,14.15
2018-09-22T19:26:33.453Z,14.12
2018-09-22T19:29:06.251Z,14.08
2018-09-22T19:31:39.641Z,14.06
2018-09-22T19:35:11.863Z,14.12
2018-09-22T19:37:51.104Z,14.04
2018-09-22T19:40:26.336Z,13.98
2018-09-22T19:43:00.424Z,13.95
2018-09-22T19:45:32.106Z,13.99
2018-09-22T19:48:09.460Z,14.01
2018-09-22T19:50:46.614Z,14.00
2018-09-22T19:53:15.556Z,14.05
2018-09-22T19:55:44.645Z,14.12
2018-09-22T19:58:13.672Z,14.04
2018-09-22T20:00:42.675Z,14.03
2018-09-22T20:03:11.699Z,13.87
2018-09-22T20:05:40.725Z,13.86
2018-09-22T20:08:09.804Z,13.87
2018-09-22T20:10:38.788Z,13.86
2018-09-22T20:13:07.842Z,13.88
2018-09-22T20:15:36.951Z,13.86
2018-09-22T20:18:05.888Z,13.80
2018-09-22T20:20:34.866Z,13.85
2018-09-22T20:23:03.857Z,13.88
2018-09-22T20:25:32.867Z,14.08
2018-09-22T20:28:01.866Z,14.25
2018-09-22T20:30:31.271Z,14.33
2018-09-22T20:33:00.223Z,14.37
2018-09-22T20:35:29.228Z,14.42
2018-09-22T20:37:58.448Z,14.50
2018-09-22T20:40:27.400Z,14.56
2018-09-22T20:42:56.331Z,14.70
2018-09-22T20:45:25.324Z,14.84
2018-09-22T20:47:54.485Z,14.89
2018-09-22T20:50:23.745Z,14.89
2018-09-22T20:52:52.670Z,14.91
2018-09-22T20:55:23.504Z,14.94
2018-09-22T20:57:52.425Z,14.96
2018-09-22T21:00:21.409Z,14.95
2018-09-22T21:02:50.349Z,14.93
2018-09-22T21:05:19.524Z,14.95
2018-09-22T21:07:48.438Z,15.02
2018-09-22T21:10:17.394Z,15.03
2018-09-22T21:12:46.452Z,15.12
2018-09-22T21:15:15.390Z,15.14
2018-09-22T21:17:44.325Z,15.17
2018-09-22T21:20:13.294Z,15.21
2018-09-22T21:22:42.240Z,15.28
2018-09-22T21:25:11.179Z,15.25
2018-09-22T21:27:40.128Z,15.31
2018-09-22T21:30:09.063Z,15.28
2018-09-22T21:32:38.020Z,15.31
2018-09-22T21:35:06.993Z,15.32
2018-09-22T21:37:35.974Z,15.33
2018-09-22T21:40:04.972Z,15.32
2018-09-22T21:42:34.002Z,15.26
2018-09-22T21:45:02.929Z,15.21
2018-09-22T21:47:31.897Z,15.27
2018-09-22T21:50:00.875Z,15.27
2018-09-22T21:52:29.906Z,15.28
2018-09-22T21:54:58.854Z,15.24
2018-09-22T21:57:27.821Z,15.29
2018-09-22T21:59:56.859Z,15.25
2018-09-22T22:02:25.860Z,15.28
2018-09-22T22:04:54.831Z,15.25
2018-09-22T22:07:23.760Z,15.24
2018-09-22T22:09:52.694Z,15.23
2018-09-22T22:12:21.661Z,15.18
2018-09-22T22:14:50.677Z,15.14
2018-09-22T22:17:19.630Z,15.02
2018-09-22T22:19:48.726Z,15.02
2018-09-22T22:22:17.662Z,15.03
2018-09-22T22:24:46.708Z,15.01
2018-09-22T22:27:15.658Z,15.04
2018-09-22T22:29:44.613Z,15.01
2018-09-22T22:32:13.602Z,15.06
2018-09-22T22:34:42.578Z,15.05
2018-09-22T22:37:11.721Z,15.03
2018-09-22T22:39:40.756Z,15.06
2018-09-22T22:42:09.834Z,15.04
2018-09-22T22:44:38.841Z,14.94
2018-09-22T22:47:07.786Z,14.88
2018-09-22T22:49:36.857Z,14.93
2018-09-22T22:52:06.151Z,14.89
2018-09-22T22:54:35.157Z,14.87
2018-09-22T22:57:04.097Z,14.81
2018-09-22T22:59:33.042Z,14.81
2018-09-22T23:02:01.996Z,14.75
2018-09-22T23:04:31.648Z,14.78
2018-09-22T23:07:00.801Z,14.73
2018-09-22T23:09:29.856Z,14.65
2018-09-22T23:11:58.936Z,14.56
2018-09-22T23:14:28.092Z,14.46
2018-09-22T23:16:57.080Z,14.30
2018-09-22T23:19:25.998Z,14.19
2018-09-22T23:21:55.137Z,14.14
2018-09-22T23:24:24.049Z,14.06
2018-09-22T23:26:54.610Z,13.88
2018-09-22T23:29:23.700Z,13.71
2018-09-22T23:31:52.636Z,13.56
2018-09-22T23:34:21.629Z,13.37
2018-09-22T23:36:50.623Z,13.21
2018-09-22T23:39:19.615Z,13.16
2018-09-22T23:41:48.628Z,13.09
2018-09-22T23:44:17.739Z,13.09
2018-09-22T23:46:46.695Z,13.06
2018-09-22T23:49:15.665Z,13.04
2018-09-22T23:51:44.659Z,13.05
2018-09-22T23:54:13.673Z,13.00
2018-09-22T23:56:42.638Z,12.96
2018-09-22T23:59:11.648Z,12.91
